createdAt,value
2019-03-26T00:01:51.070Z,29.25
2019-03-26T00:04:23.673Z,29.01
2019-03-26T00:06:56.246Z,29.01
2019-03-26T00:09:28.802Z,29.05
2019-03-26T00:12:01.669Z,30.11
2019-03-26T00:14:34.204Z,29.74
2019-03-26T00:17:06.745Z,29.48
2019-03-26T00:19:39.454Z,29.28
2019-03-26T00:22:11.987Z,29.15
2019-03-26T00:24:44.409Z,29.44
2019-03-26T00:27:16.910Z,28.84
2019-03-26T00:29:49.537Z,29.09
2019-03-26T00:32:23.620Z,28.82
2019-03-26T00:34:56.394Z,28.92
2019-03-26T00:37:28.831Z,28.55
2019-03-26T00:40:01.489Z,28.81
2019-03-26T00:42:33.952Z,28.94
2019-03-26T00:45:07.417Z,28.64
2019-03-26T00:47:40.077Z,28.34
2019-03-26T00:50:12.643Z,28.24
2019-03-26T00:52:45.120Z,28.05
2019-03-26T00:55:22.752Z,28.09
2019-03-26T00:57:51.827Z,28.07
2019-03-26T01:00:35.932Z,27.93
2019-03-26T01:03:08.763Z,28.64
2019-03-26T01:05:41.599Z,28.15
2019-03-26T01:08:14.229Z,28.02
2019-03-26T01:10:46.677Z,28.07
2019-03-26T01:13:19.295Z,28.11
2019-03-26T01:15:51.938Z,27.99
2019-03-26T01:18:24.552Z,28.30
2019-03-26T01:20:57.090Z,28.43
2019-03-26T01:23:29.610Z,27.93
2019-03-26T01:26:02.056Z,28.12
2019-03-26T01:28:34.497Z,28.63
2019-03-26T01:31:07.049Z,28.61
2019-03-26T01:33:39.408Z,28.71
2019-03-26T01:36:11.860Z,28.14
2019-03-26T01:38:44.428Z,28.14
2019-03-26T01:41:16.796Z,28.05
2019-03-26T01:43:49.316Z,28.08
2019-03-26T01:46:21.987Z,27.64
2019-03-26T01:48:54.419Z,28.14
2019-03-26T01:51:26.957Z,27.93
2019-03-26T01:53:59.576Z,27.54
2019-03-26T01:56:32.005Z,27.51
2019-03-26T01:59:04.565Z,27.42
2019-03-26T02:01:37.118Z,27.65
2019-03-26T02:04:09.713Z,27.64
2019-03-26T02:06:42.242Z,28.04
2019-03-26T02:09:14.815Z,27.87
2019-03-26T02:11:47.555Z,28.41
2019-03-26T02:14:19.996Z,28.61
2019-03-26T02:16:52.505Z,28.65
2019-03-26T02:19:25.060Z,28.86
2019-03-26T02:21:57.494Z,29.11
2019-03-26T02:24:30.028Z,29.06
2019-03-26T02:27:02.667Z,29.17
2019-03-26T02:29:35.164Z,29.32
2019-03-26T02:32:07.617Z,29.51
2019-03-26T02:34:40.105Z,29.29
2019-03-26T02:37:12.678Z,29.33
2019-03-26T02:39:45.260Z,29.60
2019-03-26T02:42:17.823Z,29.81
2019-03-26T02:44:50.409Z,29.52
2019-03-26T02:47:23.296Z,29.71
2019-03-26T02:49:55.881Z,29.78
2019-03-26T02:52:28.634Z,29.89
2019-03-26T02:55:01.133Z,29.70
2019-03-26T02:57:33.886Z,30.10
2019-03-26T03:00:07.741Z,29.80
2019-03-26T03:02:40.385Z,30.03
2019-03-26T03:05:13.006Z,30.21
2019-03-26T03:07:45.555Z,30.10
2019-03-26T03:10:18.159Z,30.23
2019-03-26T03:12:50.708Z,30.08
2019-03-26T03:15:23.361Z,30.29
2019-03-26T03:17:55.964Z,30.49
2019-03-26T03:20:28.532Z,30.35
2019-03-26T03:23:00.971Z,30.54
2019-03-26T03:25:33.507Z,30.29
2019-03-26T03:28:06.281Z,30.44
2019-03-26T03:30:38.823Z,30.44
2019-03-26T03:33:11.436Z,30.39
2019-03-26T03:35:51.939Z,29.96
2019-03-26T03:38:18.322Z,30.36
2019-03-26T03:40:50.791Z,30.38
2019-03-26T03:43:23.257Z,30.51
2019-03-26T03:45:56.117Z,30.45
2019-03-26T03:48:28.550Z,30.39
2019-03-26T03:51:01.202Z,30.65
2019-03-26T03:53:33.718Z,30.47
2019-03-26T03:56:06.101Z,30.74
2019-03-26T03:58:38.671Z,30.39
2019-03-26T04:01:11.034Z,30.75
2019-03-26T04:03:43.485Z,30.62
2019-03-26T04:06:16.373Z,30.65
2019-03-26T04:08:49.341Z,30.86
2019-03-26T04:11:21.926Z,30.87
2019-03-26T04:13:54.707Z,30.71
2019-03-26T04:16:27.362Z,30.69
2019-03-26T04:19:00.027Z,30.97
2019-03-26T04:21:32.466Z,30.63
2019-03-26T04:24:05.016Z,30.94
2019-03-26T04:26:37.573Z,31.02
2019-03-26T04:29:10.249Z,30.49
2019-03-26T04:31:42.744Z,30.68
2019-03-26T04:34:15.356Z,30.91
2019-03-26T04:36:47.908Z,31.01
2019-03-26T04:39:20.493Z,31.49
2019-03-26T04:41:53.041Z,31.63
2019-03-26T04:44:25.846Z,31.54
2019-03-26T04:46:58.521Z,31.39
2019-03-26T04:49:31.084Z,31.83
2019-03-26T04:52:04.043Z,31.87
2019-03-26T04:54:36.654Z,31.74
2019-03-26T04:57:09.080Z,31.57
2019-03-26T04:59:41.643Z,31.15
2019-03-26T05:02:14.174Z,31.55
2019-03-26T05:04:46.540Z,31.58
2019-03-26T05:07:19.029Z,31.63
2019-03-26T05:09:51.505Z,31.70
2019-03-26T05:12:24.145Z,31.78
2019-03-26T05:14:56.621Z,31.43
2019-03-26T05:17:29.251Z,31.57
2019-03-26T05:20:01.182Z,31.44
2019-03-26T05:22:33.926Z,31.61
2019-03-26T05:25:07.354Z,32.24
2019-03-26T05:27:45.398Z,31.77
2019-03-26T05:30:14.865Z,31.73
2019-03-26T05:32:47.469Z,32.06
2019-03-26T05:35:20.125Z,32.28
2019-03-26T05:37:52.688Z,33.12
2019-03-26T05:40:25.131Z,33.24
2019-03-26T05:42:57.692Z,33.25
2019-03-26T05:45:30.361Z,33.36
2019-03-26T05:48:02.984Z,33.21
2019-03-26T05:50:35.646Z,34.37
2019-03-26T05:53:08.208Z,33.87
2019-03-26T05:55:40.793Z,33.82
2019-03-26T05:58:13.238Z,34.34
2019-03-26T06:00:45.855Z,34.50
2019-03-26T06:03:18.392Z,35.33
2019-03-26T06:05:51.051Z,34.52
2019-03-26T06:08:23.552Z,34.16
2019-03-26T06:10:56.089Z,34.54
2019-03-26T06:13:28.560Z,34.39
2019-03-26T06:16:01.091Z,34.54
2019-03-26T06:18:33.652Z,34.96
2019-03-26T06:21:06.095Z,34.52
2019-03-26T06:23:38.925Z,34.55
2019-03-26T06:26:11.452Z,34.66
2019-03-26T06:28:43.931Z,35.61
2019-03-26T06:31:16.477Z,35.90
2019-03-26T06:33:49.007Z,36.09
2019-03-26T06:36:21.486Z,36.31
2019-03-26T06:38:54.078Z,36.70
2019-03-26T06:41:26.683Z,37.28
2019-03-26T06:43:59.317Z,36.99
2019-03-26T06:46:31.912Z,37.50
2019-03-26T06:49:04.469Z,37.58
2019-03-26T06:51:36.981Z,37.51
2019-03-26T06:54:09.544Z,37.80
2019-03-26T06:56:41.996Z,37.87
2019-03-26T06:59:14.462Z,37.86
2019-03-26T07:01:47.033Z,38.50
2019-03-26T07:04:19.554Z,38.81
2019-03-26T07:06:51.957Z,37.79
2019-03-26T07:09:24.573Z,39.79
2019-03-26T07:11:57.111Z,39.47
2019-03-26T07:14:29.535Z,39.39
2019-03-26T07:17:02.047Z,38.01
2019-03-26T07:19:34.531Z,37.74
2019-03-26T07:22:07.005Z,37.74
2019-03-26T07:24:39.603Z,38.22
2019-03-26T07:27:12.062Z,38.20
2019-03-26T07:29:44.628Z,38.08
2019-03-26T07:32:17.190Z,38.16
2019-03-26T07:34:49.745Z,38.00
2019-03-26T07:37:22.202Z,38.08
2019-03-26T07:39:54.826Z,37.43
2019-03-26T07:42:27.287Z,37.30
2019-03-26T07:44:59.818Z,36.88
2019-03-26T07:47:32.371Z,36.15
2019-03-26T07:50:06.351Z,35.60
2019-03-26T07:52:38.953Z,34.95
2019-03-26T07:55:11.699Z,34.86
2019-03-26T07:57:44.274Z,35.47
2019-03-26T08:00:20.073Z,33.48
2019-03-26T08:02:52.648Z,33.02
2019-03-26T08:05:30.025Z,34.01
2019-03-26T08:07:59.312Z,33.18
2019-03-26T08:10:32.040Z,32.76
2019-03-26T08:13:04.562Z,32.75
2019-03-26T08:15:37.327Z,33.18
2019-03-26T08:18:09.959Z,33.72
2019-03-26T08:20:42.344Z,34.55
2019-03-26T08:23:14.944Z,35.74
2019-03-26T08:25:47.853Z,35.07
2019-03-26T08:28:20.377Z,34.75
2019-03-26T08:30:52.877Z,35.92
2019-03-26T08:33:25.401Z,36.17
2019-03-26T08:35:57.933Z,36.41
2019-03-26T08:38:33.374Z,36.34
2019-03-26T08:41:04.716Z,33.99
2019-03-26T08:43:37.182Z,33.28
2019-03-26T08:46:09.727Z,32.85
2019-03-26T08:48:42.411Z,33.08
2019-03-26T08:51:14.873Z,32.39
2019-03-26T08:53:47.482Z,32.45
2019-03-26T08:56:20.257Z,31.61
2019-03-26T08:58:52.936Z,32.25
2019-03-26T09:01:25.467Z,31.34
2019-03-26T09:03:58.074Z,31.46
2019-03-26T09:06:30.676Z,31.54
2019-03-26T09:09:04.918Z,31.23
2019-03-26T09:11:37.387Z,31.85
2019-03-26T09:14:09.869Z,33.66
2019-03-26T09:16:42.370Z,35.23
2019-03-26T09:19:14.858Z,35.58
2019-03-26T09:21:47.386Z,36.14
2019-03-26T09:24:19.883Z,36.49
2019-03-26T09:26:52.427Z,36.63
2019-03-26T09:29:25.021Z,35.14
2019-03-26T09:31:57.542Z,32.53
2019-03-26T09:34:30.156Z,32.61
2019-03-26T09:37:02.670Z,31.99
2019-03-26T09:39:38.206Z,32.18
2019-03-26T09:42:09.335Z,32.36
2019-03-26T09:44:41.981Z,33.77
2019-03-26T09:47:16.295Z,33.27
2019-03-26T09:49:48.747Z,33.23
2019-03-26T09:52:21.268Z,32.08
2019-03-26T09:54:53.810Z,31.76
2019-03-26T09:57:26.270Z,31.67
2019-03-26T09:59:58.739Z,31.66
2019-03-26T10:02:31.151Z,31.75
2019-03-26T10:05:04.548Z,31.41
2019-03-26T10:07:37.441Z,31.23
2019-03-26T10:10:09.985Z,31.41
2019-03-26T10:12:42.772Z,31.32
2019-03-26T10:15:15.388Z,31.38
2019-03-26T10:17:47.930Z,30.92
2019-03-26T10:20:20.392Z,30.90
2019-03-26T10:22:53.020Z,30.86
2019-03-26T10:25:25.421Z,30.82
2019-03-26T10:27:58.195Z,30.60
2019-03-26T10:30:38.097Z,30.38
2019-03-26T10:33:10.687Z,30.49
2019-03-26T10:35:43.556Z,30.42
2019-03-26T10:38:16.243Z,30.28
2019-03-26T10:40:48.890Z,30.10
2019-03-26T10:43:21.464Z,29.98
2019-03-26T10:45:54.048Z,29.77
2019-03-26T10:48:26.434Z,29.76
2019-03-26T10:50:59.254Z,29.78
2019-03-26T10:53:31.786Z,29.79
2019-03-26T10:56:04.255Z,29.63
2019-03-26T10:58:36.753Z,29.57
2019-03-26T11:01:09.308Z,29.47
2019-03-26T11:03:42.044Z,29.67
2019-03-26T11:06:14.582Z,30.07
2019-03-26T11:08:50.249Z,29.17
2019-03-26T11:11:23.140Z,28.92
2019-03-26T11:13:58.662Z,28.79
2019-03-26T11:16:29.950Z,29.18
2019-03-26T11:19:02.457Z,29.35
2019-03-26T11:21:35.352Z,30.52
2019-03-26T11:24:19.529Z,30.95
2019-03-26T11:26:47.633Z,32.07
2019-03-26T11:29:20.319Z,32.65
2019-03-26T11:31:52.972Z,32.40
2019-03-26T11:34:25.618Z,32.69
2019-03-26T11:36:58.149Z,32.92
2019-03-26T11:39:32.961Z,33.20
2019-03-26T11:42:04.925Z,33.25
2019-03-26T11:44:37.509Z,33.49
2019-03-26T11:47:10.149Z,33.55
2019-03-26T11:49:42.693Z,33.92
2019-03-26T11:52:15.132Z,33.77
2019-03-26T11:54:47.613Z,33.96
2019-03-26T11:57:20.209Z,35.13
2019-03-26T11:59:52.728Z,35.78
2019-03-26T12:02:25.325Z,36.15
2019-03-26T12:04:57.884Z,36.30
2019-03-26T12:07:30.500Z,40.15
2019-03-26T12:10:03.754Z,43.13
2019-03-26T12:12:36.493Z,41.14
2019-03-26T12:15:09.325Z,39.49
2019-03-26T12:17:41.851Z,39.14
2019-03-26T12:20:14.434Z,38.97
2019-03-26T12:22:47.052Z,38.93
2019-03-26T12:25:19.568Z,38.95
2019-03-26T12:27:52.111Z,38.83
2019-03-26T12:30:32.875Z,38.92
2019-03-26T12:33:06.428Z,38.86
2019-03-26T12:35:39.778Z,38.80
2019-03-26T12:38:16.969Z,38.78
2019-03-26T12:40:49.603Z,38.62
2019-03-26T12:43:24.069Z,38.58
2019-03-26T12:45:56.628Z,38.60
2019-03-26T12:48:47.377Z,38.50
2019-03-26T12:51:20.303Z,38.53
2019-03-26T12:53:52.900Z,38.50
2019-03-26T12:56:25.481Z,38.54
2019-03-26T12:58:58.628Z,38.47
2019-03-26T13:01:33.204Z,38.24
2019-03-26T13:04:12.628Z,38.24
2019-03-26T13:06:40.343Z,38.23
2019-03-26T13:09:13.136Z,38.22
2019-03-26T13:11:45.613Z,38.12
2019-03-26T13:14:18.047Z,37.97
2019-03-26T13:16:50.571Z,37.82
2019-03-26T13:19:23.128Z,37.90
2019-03-26T13:21:58.611Z,37.98
2019-03-26T13:24:31.774Z,37.83
2019-03-26T13:27:04.550Z,37.90
2019-03-26T13:29:37.375Z,37.77
2019-03-26T13:32:12.887Z,37.81
2019-03-26T13:34:44.216Z,37.75
2019-03-26T13:37:16.801Z,37.71
2019-03-26T13:39:51.049Z,37.70
2019-03-26T13:42:23.958Z,37.62
2019-03-26T13:44:59.442Z,37.65
2019-03-26T13:47:31.879Z,37.57
2019-03-26T13:50:06.471Z,37.56
2019-03-26T13:52:39.096Z,37.65
2019-03-26T13:55:11.765Z,37.38
2019-03-26T13:57:44.224Z,37.76
2019-03-26T14:00:20.046Z,37.59
2019-03-26T14:02:52.636Z,37.67
2019-03-26T14:05:26.839Z,37.64
2019-03-26T14:07:59.341Z,37.45
2019-03-26T14:10:40.827Z,37.31
2019-03-26T14:13:06.193Z,37.26
2019-03-26T14:15:38.777Z,37.49
2019-03-26T14:18:17.238Z,37.47
2019-03-26T14:20:49.983Z,37.32
2019-03-26T14:23:22.609Z,37.37
2019-03-26T14:25:55.216Z,37.18
2019-03-26T14:28:27.789Z,37.25
2019-03-26T14:31:00.339Z,37.17
2019-03-26T14:33:40.603Z,37.22
2019-03-26T14:36:18.040Z,37.19
2019-03-26T14:38:50.700Z,37.41
2019-03-26T14:41:34.129Z,37.07
2019-03-26T14:44:06.632Z,37.46
2019-03-26T14:46:40.851Z,37.26
2019-03-26T14:49:13.320Z,36.98
2019-03-26T14:51:46.040Z,36.86
2019-03-26T14:54:18.811Z,37.00
2019-03-26T14:56:51.333Z,36.51
2019-03-26T14:59:24.040Z,36.51
2019-03-26T15:01:56.792Z,36.36
2019-03-26T15:04:29.316Z,36.38
2019-03-26T15:07:02.231Z,36.56
2019-03-26T15:09:34.822Z,36.33
2019-03-26T15:12:07.382Z,36.16
2019-03-26T15:14:39.993Z,37.18
2019-03-26T15:17:12.566Z,37.79
2019-03-26T15:19:45.023Z,37.70
2019-03-26T15:22:17.445Z,36.69
2019-03-26T15:24:49.974Z,36.05
2019-03-26T15:27:22.683Z,35.75
2019-03-26T15:29:55.284Z,35.52
2019-03-26T15:32:27.907Z,35.66
2019-03-26T15:35:00.770Z,36.98
2019-03-26T15:37:33.236Z,37.49
2019-03-26T15:40:08.178Z,37.71
2019-03-26T15:42:41.738Z,37.53
2019-03-26T15:45:15.215Z,37.37
2019-03-26T15:47:47.709Z,37.17
2019-03-26T15:50:43.463Z,36.99
2019-03-26T15:53:15.125Z,36.81
2019-03-26T15:55:48.001Z,36.72
2019-03-26T15:58:20.663Z,36.53
2019-03-26T16:00:53.386Z,36.53
2019-03-26T16:03:26.041Z,36.58
2019-03-26T16:05:58.754Z,37.16
2019-03-26T16:08:31.682Z,37.53
2019-03-26T16:11:04.238Z,38.57
2019-03-26T16:13:39.435Z,39.72
2019-03-26T16:16:12.482Z,40.79
2019-03-26T16:18:47.449Z,41.76
2019-03-26T16:21:24.627Z,42.05
2019-03-26T16:23:58.130Z,39.46
2019-03-26T16:26:34.982Z,39.11
2019-03-26T16:29:11.015Z,38.83
2019-03-26T16:31:44.058Z,38.75
2019-03-26T16:34:17.088Z,38.43
2019-03-26T16:36:59.313Z,38.22
2019-03-26T16:39:29.237Z,37.84
2019-03-26T16:42:04.618Z,37.39
2019-03-26T16:44:37.504Z,37.00
2019-03-26T16:47:10.259Z,36.94
2019-03-26T16:49:42.958Z,36.63
2019-03-26T16:52:15.630Z,36.28
2019-03-26T16:54:48.316Z,35.89
2019-03-26T16:57:21.268Z,35.56
2019-03-26T16:59:57.472Z,35.44
2019-03-26T17:02:30.353Z,35.11
2019-03-26T17:05:05.216Z,34.90
2019-03-26T17:07:37.904Z,34.75
2019-03-26T17:10:10.491Z,34.45
2019-03-26T17:12:43.119Z,34.29
2019-03-26T17:15:15.600Z,34.14
2019-03-26T17:17:48.314Z,33.82
2019-03-26T17:20:23.830Z,34.54
2019-03-26T17:22:55.958Z,34.87
2019-03-26T17:25:28.757Z,34.47
2019-03-26T17:28:01.357Z,34.12
2019-03-26T17:30:33.908Z,33.92
2019-03-26T17:33:06.539Z,34.77
2019-03-26T17:35:39.035Z,34.39
2019-03-26T17:38:11.558Z,34.38
2019-03-26T17:40:44.078Z,34.48
2019-03-26T17:43:16.605Z,34.52
2019-03-26T17:45:49.676Z,33.94
2019-03-26T17:48:22.309Z,33.47
2019-03-26T17:50:54.920Z,33.17
2019-03-26T17:53:27.447Z,33.53
2019-03-26T17:56:00.089Z,33.25
2019-03-26T17:58:32.848Z,33.15
2019-03-26T18:01:05.410Z,33.14
2019-03-26T18:03:37.857Z,34.45
2019-03-26T18:06:10.336Z,34.70
2019-03-26T18:08:42.860Z,34.86
2019-03-26T18:11:15.209Z,34.63
2019-03-26T18:13:47.810Z,34.39
2019-03-26T18:16:20.377Z,34.63
2019-03-26T18:18:54.951Z,34.99
2019-03-26T18:21:27.255Z,38.06
2019-03-26T18:23:59.783Z,38.25
2019-03-26T18:26:32.299Z,38.53
2019-03-26T18:29:04.808Z,38.26
2019-03-26T18:31:37.349Z,38.05
2019-03-26T18:34:09.865Z,39.17
2019-03-26T18:36:42.668Z,39.42
2019-03-26T18:39:15.339Z,39.84
2019-03-26T18:41:47.883Z,39.43
2019-03-26T18:44:20.330Z,39.01
2019-03-26T18:46:52.898Z,38.45
2019-03-26T18:49:25.437Z,38.56
2019-03-26T18:51:57.973Z,38.73
2019-03-26T18:54:30.433Z,39.05
2019-03-26T18:57:02.932Z,38.96
2019-03-26T18:59:35.234Z,38.58
2019-03-26T19:02:07.708Z,39.94
2019-03-26T19:04:40.228Z,40.59
2019-03-26T19:07:12.818Z,39.40
2019-03-26T19:09:45.236Z,39.24
2019-03-26T19:12:17.881Z,39.41
2019-03-26T19:14:50.407Z,39.11
2019-03-26T19:17:22.904Z,39.12
2019-03-26T19:19:58.257Z,39.01
2019-03-26T19:22:29.640Z,39.03
2019-03-26T19:25:02.104Z,39.14
2019-03-26T19:27:34.681Z,39.28
2019-03-26T19:30:07.391Z,39.50
2019-03-26T19:32:39.939Z,39.32
2019-03-26T19:35:12.518Z,39.44
2019-03-26T19:37:45.101Z,39.82
2019-03-26T19:40:17.722Z,39.72
2019-03-26T19:42:50.203Z,39.72
2019-03-26T19:45:22.718Z,39.62
2019-03-26T19:47:55.198Z,39.66
2019-03-26T19:50:27.568Z,39.83
2019-03-26T19:53:00.143Z,39.62
2019-03-26T19:55:32.719Z,42.05
2019-03-26T19:58:05.280Z,41.26
2019-03-26T20:00:37.763Z,40.71
2019-03-26T20:03:10.433Z,40.10
2019-03-26T20:05:42.865Z,39.81
2019-03-26T20:08:15.504Z,39.63
2019-03-26T20:10:48.172Z,39.59
2019-03-26T20:13:24.713Z,39.28
2019-03-26T20:15:54.971Z,39.54
2019-03-26T20:18:27.603Z,39.27
2019-03-26T20:21:00.052Z,39.49
2019-03-26T20:23:32.695Z,39.46
2019-03-26T20:26:05.198Z,39.10
2019-03-26T20:28:37.605Z,39.15
2019-03-26T20:31:10.079Z,38.88
2019-03-26T20:33:42.877Z,38.56
2019-03-26T20:36:15.550Z,40.72
2019-03-26T20:38:51.303Z,40.43
2019-03-26T20:41:37.425Z,39.89
2019-03-26T20:44:09.998Z,40.15
2019-03-26T20:46:42.538Z,39.71
2019-03-26T20:49:14.970Z,39.49
2019-03-26T20:51:47.468Z,39.24
2019-03-26T20:54:20.111Z,38.60
2019-03-26T20:56:52.771Z,37.99
2019-03-26T20:59:25.196Z,37.09
2019-03-26T21:01:58.003Z,36.63
2019-03-26T21:04:30.575Z,37.88
2019-03-26T21:07:03.256Z,36.67
2019-03-26T21:09:36.136Z,35.95
2019-03-26T21:12:08.697Z,35.60
2019-03-26T21:14:41.269Z,35.07
2019-03-26T21:17:13.874Z,34.76
2019-03-26T21:19:47.250Z,34.51
2019-03-26T21:22:19.994Z,34.17
2019-03-26T21:24:52.634Z,34.19
2019-03-26T21:27:25.231Z,33.92
2019-03-26T21:30:10.048Z,33.55
2019-03-26T21:32:32.105Z,33.47
2019-03-26T21:35:05.803Z,33.38
2019-03-26T21:37:39.919Z,33.10
2019-03-26T21:40:12.595Z,32.82
2019-03-26T21:42:45.692Z,32.73
2019-03-26T21:45:21.327Z,32.52
2019-03-26T21:47:53.883Z,32.43
2019-03-26T21:50:26.408Z,32.26
2019-03-26T21:52:58.975Z,31.99
2019-03-26T21:55:31.546Z,31.68
2019-03-26T21:58:04.127Z,31.58
2019-03-26T22:00:36.638Z,31.25
2019-03-26T22:03:09.094Z,31.14
2019-03-26T22:05:44.313Z,30.85
2019-03-26T22:08:16.990Z,30.80
2019-03-26T22:10:49.522Z,30.75
2019-03-26T22:13:22.249Z,30.57
2019-03-26T22:15:54.826Z,30.51
2019-03-26T22:18:27.300Z,30.40
2019-03-26T22:20:59.880Z,30.33
2019-03-26T22:23:32.353Z,30.05
2019-03-26T22:26:04.937Z,30.07
2019-03-26T22:28:37.380Z,30.03
2019-03-26T22:31:09.986Z,29.88
2019-03-26T22:33:42.708Z,29.98
2019-03-26T22:36:15.235Z,29.96
2019-03-26T22:38:47.753Z,29.95
2019-03-26T22:41:20.431Z,29.85
2019-03-26T22:43:55.063Z,29.70
2019-03-26T22:46:26.973Z,29.69
2019-03-26T22:48:59.506Z,29.84
2019-03-26T22:51:31.886Z,29.63
2019-03-26T22:54:04.440Z,29.59
2019-03-26T22:56:37.120Z,29.47
2019-03-26T22:59:09.604Z,29.39
2019-03-26T23:01:42.204Z,29.35
2019-03-26T23:04:14.962Z,29.24
2019-03-26T23:06:47.676Z,29.25
2019-03-26T23:09:20.361Z,29.16
2019-03-26T23:11:53.008Z,29.08
2019-03-26T23:14:25.619Z,29.15
2019-03-26T23:16:58.246Z,29.04
2019-03-26T23:19:31.033Z,29.05
2019-03-26T23:22:03.496Z,28.96
2019-03-26T23:24:36.054Z,28.98
2019-03-26T23:27:08.555Z,28.18
2019-03-26T23:29:41.005Z,28.58
2019-03-26T23:32:13.379Z,28.61
2019-03-26T23:34:45.863Z,28.63
2019-03-26T23:37:18.538Z,28.48
2019-03-26T23:39:51.408Z,28.45
2019-03-26T23:42:23.898Z,28.41
2019-03-26T23:44:58.495Z,28.47
2019-03-26T23:47:30.793Z,28.33
2019-03-26T23:50:04.725Z,28.34
2019-03-26T23:52:37.135Z,28.34
2019-03-26T23:55:09.639Z,28.28
2019-03-26T23:57:42.095Z,28.26
